sensor_id;sensor_type;location;lat;lon;timestamp;P1;durP1;ratioP1;P2;durP2;ratioP2
11877;SDS011;5998;42.676;23.268;2023-10-13T00:00:34;6.57;;;5.77;;
11877;SDS011;5998;42.676;23.268;2023-10-13T00:03:01;8.60;;;5.90;;
11877;SDS011;5998;42.676;23.268;2023-10-13T00:05:29;8.77;;;6.27;;
11877;SDS011;5998;42.676;23.268;2023-10-13T00:07:56;9.93;;;6.97;;
11877;SDS011;5998;42.676;23.268;2023-10-13T00:10:26;7.90;;;6.10;;
11877;SDS011;5998;42.676;23.268;2023-10-13T00:12:53;10.83;;;5.93;;
11877;SDS011;5998;42.676;23.268;2023-10-13T00:15:30;7.63;;;6.50;;
11877;SDS011;5998;42.676;23.268;2023-10-13T00:18:04;10.17;;;6.10;;
11877;SDS011;5998;42.676;23.268;2023-10-13T00:20:38;15.20;;;10.13;;
11877;SDS011;5998;42.676;23.268;2023-10-13T00:23:05;10.10;;;7.77;;
11877;SDS011;5998;42.676;23.268;2023-10-13T00:25:32;9.63;;;8.20;;
11877;SDS011;5998;42.676;23.268;2023-10-13T00:28:08;12.03;;;7.90;;
11877;SDS011;5998;42.676;23.268;2023-10-13T00:30:35;8.70;;;6.57;;
11877;SDS011;5998;42.676;23.268;2023-10-13T00:33:03;9.40;;;6.17;;
11877;SDS011;5998;42.676;23.268;2023-10-13T00:35:32;9.30;;;6.63;;
11877;SDS011;5998;42.676;23.268;2023-10-13T00:38:02;9.97;;;6.20;;
11877;SDS011;5998;42.676;23.268;2023-10-13T00:40:38;7.10;;;5.67;;
11877;SDS011;5998;42.676;23.268;2023-10-13T00:43:09;10.13;;;6.20;;
11877;SDS011;5998;42.676;23.268;2023-10-13T00:45:58;9.53;;;6.50;;
11877;SDS011;5998;42.676;23.268;2023-10-13T00:48:35;9.77;;;6.30;;
11877;SDS011;5998;42.676;23.268;2023-10-13T00:51:09;8.93;;;6.37;;
11877;SDS011;5998;42.676;23.268;2023-10-13T00:53:43;6.93;;;6.13;;
11877;SDS011;5998;42.676;23.268;2023-10-13T00:56:13;8.90;;;6.57;;
11877;SDS011;5998;42.676;23.268;2023-10-13T00:58:46;6.90;;;5.67;;
11877;SDS011;5998;42.676;23.268;2023-10-13T01:01:15;8.53;;;6.10;;
11877;SDS011;5998;42.676;23.268;2023-10-13T01:03:45;8.13;;;6.27;;
11877;SDS011;5998;42.676;23.268;2023-10-13T01:06:15;9.83;;;6.47;;
11877;SDS011;5998;42.676;23.268;2023-10-13T01:08:45;9.43;;;5.93;;
11877;SDS011;5998;42.676;23.268;2023-10-13T01:11:16;7.27;;;6.57;;
11877;SDS011;5998;42.676;23.268;2023-10-13T01:13:43;7.33;;;5.90;;
11877;SDS011;5998;42.676;23.268;2023-10-13T01:16:12;8.43;;;6.43;;
11877;SDS011;5998;42.676;23.268;2023-10-13T01:18:38;7.63;;;6.13;;
11877;SDS011;5998;42.676;23.268;2023-10-13T01:21:14;8.10;;;6.77;;
11877;SDS011;5998;42.676;23.268;2023-10-13T01:23:43;9.93;;;6.40;;
11877;SDS011;5998;42.676;23.268;2023-10-13T01:26:12;9.53;;;6.23;;
11877;SDS011;5998;42.676;23.268;2023-10-13T01:28:38;9.13;;;6.03;;
11877;SDS011;5998;42.676;23.268;2023-10-13T01:31:12;7.70;;;6.50;;
11877;SDS011;5998;42.676;23.268;2023-10-13T01:33:41;7.53;;;6.33;;
11877;SDS011;5998;42.676;23.268;2023-10-13T01:36:08;8.87;;;6.20;;
11877;SDS011;5998;42.676;23.268;2023-10-13T01:38:33;9.00;;;6.80;;
11877;SDS011;5998;42.676;23.268;2023-10-13T01:41:06;10.10;;;6.67;;
11877;SDS011;5998;42.676;23.268;2023-10-13T01:43:34;11.23;;;6.67;;
11877;SDS011;5998;42.676;23.268;2023-10-13T01:46:01;9.47;;;6.23;;
11877;SDS011;5998;42.676;23.268;2023-10-13T01:48:28;7.03;;;5.97;;
11877;SDS011;5998;42.676;23.268;2023-10-13T01:50:57;9.37;;;6.47;;
11877;SDS011;5998;42.676;23.268;2023-10-13T01:53:25;7.23;;;6.30;;
11877;SDS011;5998;42.676;23.268;2023-10-13T01:55:54;8.90;;;6.37;;
11877;SDS011;5998;42.676;23.268;2023-10-13T01:58:23;8.90;;;6.07;;
11877;SDS011;5998;42.676;23.268;2023-10-13T02:00:51;8.07;;;5.77;;
11877;SDS011;5998;42.676;23.268;2023-10-13T02:03:18;6.67;;;5.97;;
11877;SDS011;5998;42.676;23.268;2023-10-13T02:05:46;9.63;;;6.33;;
11877;SDS011;5998;42.676;23.268;2023-10-13T02:08:14;10.03;;;6.47;;
11877;SDS011;5998;42.676;23.268;2023-10-13T02:10:44;7.87;;;6.97;;
11877;SDS011;5998;42.676;23.268;2023-10-13T02:13:14;10.20;;;6.53;;
11877;SDS011;5998;42.676;23.268;2023-10-13T02:15:43;11.40;;;6.23;;
11877;SDS011;5998;42.676;23.268;2023-10-13T02:18:13;7.50;;;5.60;;
11877;SDS011;5998;42.676;23.268;2023-10-13T02:20:45;9.50;;;6.00;;
11877;SDS011;5998;42.676;23.268;2023-10-13T02:23:19;6.63;;;5.87;;
11877;SDS011;5998;42.676;23.268;2023-10-13T02:25:45;8.63;;;6.23;;
11877;SDS011;5998;42.676;23.268;2023-10-13T02:28:12;13.73;;;6.93;;
11877;SDS011;5998;42.676;23.268;2023-10-13T02:30:48;17.13;;;8.20;;
11877;SDS011;5998;42.676;23.268;2023-10-13T02:33:15;13.10;;;7.47;;
11877;SDS011;5998;42.676;23.268;2023-10-13T02:35:47;18.37;;;7.73;;
11877;SDS011;5998;42.676;23.268;2023-10-13T02:38:19;8.83;;;6.40;;
11877;SDS011;5998;42.676;23.268;2023-10-13T02:40:51;9.57;;;6.10;;
11877;SDS011;5998;42.676;23.268;2023-10-13T02:43:19;14.80;;;6.97;;
11877;SDS011;5998;42.676;23.268;2023-10-13T02:45:53;13.27;;;7.27;;
11877;SDS011;5998;42.676;23.268;2023-10-13T02:48:24;14.53;;;7.63;;
11877;SDS011;5998;42.676;23.268;2023-10-13T02:50:54;14.77;;;8.00;;
11877;SDS011;5998;42.676;23.268;2023-10-13T02:53:22;12.23;;;7.73;;
11877;SDS011;5998;42.676;23.268;2023-10-13T02:55:49;18.97;;;8.00;;
11877;SDS011;5998;42.676;23.268;2023-10-13T02:58:17;14.27;;;7.70;;
11877;SDS011;5998;42.676;23.268;2023-10-13T03:00:43;11.77;;;7.13;;
11877;SDS011;5998;42.676;23.268;2023-10-13T03:03:11;14.53;;;8.13;;
11877;SDS011;5998;42.676;23.268;2023-10-13T03:05:39;12.30;;;6.93;;
11877;SDS011;5998;42.676;23.268;2023-10-13T03:08:07;12.37;;;7.20;;
11877;SDS011;5998;42.676;23.268;2023-10-13T03:10:36;10.97;;;7.17;;
11877;SDS011;5998;42.676;23.268;2023-10-13T03:13:10;10.77;;;7.40;;
11877;SDS011;5998;42.676;23.268;2023-10-13T03:15:36;15.17;;;8.17;;
11877;SDS011;5998;42.676;23.268;2023-10-13T03:18:02;12.10;;;8.80;;
11877;SDS011;5998;42.676;23.268;2023-10-13T03:20:31;20.27;;;9.07;;
11877;SDS011;5998;42.676;23.268;2023-10-13T03:22:57;16.13;;;8.43;;
11877;SDS011;5998;42.676;23.268;2023-10-13T03:25:24;11.87;;;7.77;;
11877;SDS011;5998;42.676;23.268;2023-10-13T03:27:54;14.00;;;7.80;;
11877;SDS011;5998;42.676;23.268;2023-10-13T03:30:32;12.67;;;7.20;;
11877;SDS011;5998;42.676;23.268;2023-10-13T03:33:04;11.90;;;7.57;;
11877;SDS011;5998;42.676;23.268;2023-10-13T03:35:36;8.13;;;6.27;;
11877;SDS011;5998;42.676;23.268;2023-10-13T03:38:07;12.50;;;7.27;;
11877;SDS011;5998;42.676;23.268;2023-10-13T03:40:43;13.20;;;6.80;;
11877;SDS011;5998;42.676;23.268;2023-10-13T03:43:32;14.90;;;7.60;;
11877;SDS011;5998;42.676;23.268;2023-10-13T03:46:10;20.10;;;8.33;;
11877;SDS011;5998;42.676;23.268;2023-10-13T03:48:37;22.03;;;10.77;;
11877;SDS011;5998;42.676;23.268;2023-10-13T03:51:18;16.73;;;8.63;;
11877;SDS011;5998;42.676;23.268;2023-10-13T03:53:45;16.77;;;8.47;;
11877;SDS011;5998;42.676;23.268;2023-10-13T03:56:19;14.20;;;7.50;;
11877;SDS011;5998;42.676;23.268;2023-10-13T03:58:52;10.93;;;7.40;;
11877;SDS011;5998;42.676;23.268;2023-10-13T04:01:23;12.77;;;7.40;;
11877;SDS011;5998;42.676;23.268;2023-10-13T04:03:58;13.63;;;8.47;;
11877;SDS011;5998;42.676;23.268;2023-10-13T04:06:35;23.17;;;9.10;;
11877;SDS011;5998;42.676;23.268;2023-10-13T04:09:38;20.97;;;8.47;;
11877;SDS011;5998;42.676;23.268;2023-10-13T04:12:32;20.50;;;10.03;;
11877;SDS011;5998;42.676;23.268;2023-10-13T04:15:16;20.53;;;9.87;;
11877;SDS011;5998;42.676;23.268;2023-10-13T04:17:52;18.30;;;10.07;;
11877;SDS011;5998;42.676;23.268;2023-10-13T04:20:18;26.33;;;18.07;;
11877;SDS011;5998;42.676;23.268;2023-10-13T04:23:04;27.17;;;15.80;;
11877;SDS011;5998;42.676;23.268;2023-10-13T04:25:51;19.57;;;9.43;;
11877;SDS011;5998;42.676;23.268;2023-10-13T04:28:30;17.63;;;11.00;;
11877;SDS011;5998;42.676;23.268;2023-10-13T04:31:17;20.90;;;10.57;;
11877;SDS011;5998;42.676;23.268;2023-10-13T04:34:01;20.67;;;9.63;;
11877;SDS011;5998;42.676;23.268;2023-10-13T04:36:28;17.80;;;8.70;;
11877;SDS011;5998;42.676;23.268;2023-10-13T04:39:11;20.83;;;12.80;;
11877;SDS011;5998;42.676;23.268;2023-10-13T04:41:54;10.93;;;8.70;;
11877;SDS011;5998;42.676;23.268;2023-10-13T04:44:23;22.77;;;9.83;;
11877;SDS011;5998;42.676;23.268;2023-10-13T04:47:04;26.03;;;10.77;;
11877;SDS011;5998;42.676;23.268;2023-10-13T04:49:34;22.00;;;13.90;;
11877;SDS011;5998;42.676;23.268;2023-10-13T04:52:18;22.23;;;11.23;;
11877;SDS011;5998;42.676;23.268;2023-10-13T04:55:05;22.27;;;11.07;;
11877;SDS011;5998;42.676;23.268;2023-10-13T04:58:08;22.47;;;10.63;;
11877;SDS011;5998;42.676;23.268;2023-10-13T05:00:40;17.40;;;9.63;;
11877;SDS011;5998;42.676;23.268;2023-10-13T05:03:42;19.70;;;9.50;;
11877;SDS011;5998;42.676;23.268;2023-10-13T05:06:46;15.93;;;8.87;;
11877;SDS011;5998;42.676;23.268;2023-10-13T05:09:30;15.67;;;9.57;;
11877;SDS011;5998;42.676;23.268;2023-10-13T05:12:15;19.63;;;9.37;;
11877;SDS011;5998;42.676;23.268;2023-10-13T05:14:59;11.30;;;8.23;;
11877;SDS011;5998;42.676;23.268;2023-10-13T05:17:44;13.23;;;8.60;;
11877;SDS011;5998;42.676;23.268;2023-10-13T05:20:34;26.80;;;11.17;;
11877;SDS011;5998;42.676;23.268;2023-10-13T05:23:18;32.10;;;12.57;;
11877;SDS011;5998;42.676;23.268;2023-10-13T05:26:02;24.30;;;11.80;;
11877;SDS011;5998;42.676;23.268;2023-10-13T05:28:47;27.17;;;11.83;;
11877;SDS011;5998;42.676;23.268;2023-10-13T05:31:31;22.03;;;11.80;;
11877;SDS011;5998;42.676;23.268;2023-10-13T05:34:15;18.67;;;10.87;;
11877;SDS011;5998;42.676;23.268;2023-10-13T05:36:59;23.17;;;10.47;;
11877;SDS011;5998;42.676;23.268;2023-10-13T05:39:43;23.73;;;10.67;;
11877;SDS011;5998;42.676;23.268;2023-10-13T05:42:27;18.10;;;9.73;;
11877;SDS011;5998;42.676;23.268;2023-10-13T05:45:12;24.37;;;12.57;;
11877;SDS011;5998;42.676;23.268;2023-10-13T05:48:23;24.10;;;12.13;;
11877;SDS011;5998;42.676;23.268;2023-10-13T05:51:06;24.77;;;12.13;;
11877;SDS011;5998;42.676;23.268;2023-10-13T05:53:51;22.83;;;12.00;;
11877;SDS011;5998;42.676;23.268;2023-10-13T05:56:31;21.77;;;11.10;;
11877;SDS011;5998;42.676;23.268;2023-10-13T05:59:15;14.30;;;9.67;;
11877;SDS011;5998;42.676;23.268;2023-10-13T06:02:01;16.37;;;10.03;;
11877;SDS011;5998;42.676;23.268;2023-10-13T06:04:53;15.00;;;9.47;;
11877;SDS011;5998;42.676;23.268;2023-10-13T06:07:37;17.23;;;10.53;;
11877;SDS011;5998;42.676;23.268;2023-10-13T06:10:21;19.20;;;10.67;;
11877;SDS011;5998;42.676;23.268;2023-10-13T06:13:05;18.97;;;10.67;;
11877;SDS011;5998;42.676;23.268;2023-10-13T06:15:50;22.43;;;11.93;;
11877;SDS011;5998;42.676;23.268;2023-10-13T06:18:35;18.47;;;10.63;;
11877;SDS011;5998;42.676;23.268;2023-10-13T06:21:20;16.77;;;10.70;;
11877;SDS011;5998;42.676;23.268;2023-10-13T06:24:05;21.33;;;11.43;;
11877;SDS011;5998;42.676;23.268;2023-10-13T06:26:49;15.37;;;10.07;;
11877;SDS011;5998;42.676;23.268;2023-10-13T06:29:33;11.53;;;9.43;;
11877;SDS011;5998;42.676;23.268;2023-10-13T06:32:00;13.70;;;10.03;;
11877;SDS011;5998;42.676;23.268;2023-10-13T06:34:28;13.50;;;9.90;;
11877;SDS011;5998;42.676;23.268;2023-10-13T06:37:09;15.60;;;10.23;;
11877;SDS011;5998;42.676;23.268;2023-10-13T06:39:48;16.40;;;10.30;;
11877;SDS011;5998;42.676;23.268;2023-10-13T06:42:15;15.17;;;10.47;;
11877;SDS011;5998;42.676;23.268;2023-10-13T06:44:43;19.07;;;10.47;;
11877;SDS011;5998;42.676;23.268;2023-10-13T06:47:11;18.83;;;11.20;;
11877;SDS011;5998;42.676;23.268;2023-10-13T06:49:40;17.17;;;10.53;;
11877;SDS011;5998;42.676;23.268;2023-10-13T06:52:08;18.43;;;11.50;;
11877;SDS011;5998;42.676;23.268;2023-10-13T06:54:35;17.33;;;11.33;;
11877;SDS011;5998;42.676;23.268;2023-10-13T06:57:03;16.60;;;11.87;;
11877;SDS011;5998;42.676;23.268;2023-10-13T06:59:32;19.60;;;12.77;;
11877;SDS011;5998;42.676;23.268;2023-10-13T07:02:01;21.40;;;12.23;;
11877;SDS011;5998;42.676;23.268;2023-10-13T07:04:31;25.67;;;12.63;;
11877;SDS011;5998;42.676;23.268;2023-10-13T07:06:59;21.27;;;12.23;;
11877;SDS011;5998;42.676;23.268;2023-10-13T07:09:26;20.63;;;11.83;;
11877;SDS011;5998;42.676;23.268;2023-10-13T07:12:20;13.97;;;11.10;;
11877;SDS011;5998;42.676;23.268;2023-10-13T07:14:49;22.40;;;11.83;;
11877;SDS011;5998;42.676;23.268;2023-10-13T07:17:24;18.07;;;11.90;;
11877;SDS011;5998;42.676;23.268;2023-10-13T07:19:51;18.87;;;11.50;;
11877;SDS011;5998;42.676;23.268;2023-10-13T07:22:32;18.20;;;11.43;;
11877;SDS011;5998;42.676;23.268;2023-10-13T07:25:05;15.23;;;10.60;;
11877;SDS011;5998;42.676;23.268;2023-10-13T07:27:32;18.33;;;11.87;;
11877;SDS011;5998;42.676;23.268;2023-10-13T07:30:00;18.50;;;11.20;;
11877;SDS011;5998;42.676;23.268;2023-10-13T07:32:38;18.00;;;12.50;;
11877;SDS011;5998;42.676;23.268;2023-10-13T07:35:10;17.97;;;11.97;;
11877;SDS011;5998;42.676;23.268;2023-10-13T07:37:38;17.03;;;12.67;;
11877;SDS011;5998;42.676;23.268;2023-10-13T07:40:07;17.30;;;11.50;;
11877;SDS011;5998;42.676;23.268;2023-10-13T07:42:55;16.13;;;11.70;;
11877;SDS011;5998;42.676;23.268;2023-10-13T07:45:26;18.57;;;11.77;;
11877;SDS011;5998;42.676;23.268;2023-10-13T07:48:01;17.20;;;12.10;;
11877;SDS011;5998;42.676;23.268;2023-10-13T07:50:29;18.77;;;12.63;;
11877;SDS011;5998;42.676;23.268;2023-10-13T07:53:00;17.63;;;11.87;;
11877;SDS011;5998;42.676;23.268;2023-10-13T07:55:30;17.87;;;11.93;;
11877;SDS011;5998;42.676;23.268;2023-10-13T07:57:58;17.87;;;12.00;;
11877;SDS011;5998;42.676;23.268;2023-10-13T08:00:32;24.10;;;13.10;;
11877;SDS011;5998;42.676;23.268;2023-10-13T08:03:11;20.00;;;12.23;;
11877;SDS011;5998;42.676;23.268;2023-10-13T08:05:56;23.73;;;12.83;;
11877;SDS011;5998;42.676;23.268;2023-10-13T08:08:31;20.60;;;12.03;;
11877;SDS011;5998;42.676;23.268;2023-10-13T08:11:03;18.43;;;12.57;;
11877;SDS011;5998;42.676;23.268;2023-10-13T08:13:36;20.93;;;13.57;;
11877;SDS011;5998;42.676;23.268;2023-10-13T08:16:03;24.33;;;12.80;;
11877;SDS011;5998;42.676;23.268;2023-10-13T08:18:34;19.47;;;12.80;;
11877;SDS011;5998;42.676;23.268;2023-10-13T08:21:01;18.70;;;12.87;;
11877;SDS011;5998;42.676;23.268;2023-10-13T08:23:30;17.20;;;12.13;;
11877;SDS011;5998;42.676;23.268;2023-10-13T08:26:14;18.33;;;11.40;;
11877;SDS011;5998;42.676;23.268;2023-10-13T08:29:08;16.70;;;11.50;;
11877;SDS011;5998;42.676;23.268;2023-10-13T08:31:52;19.73;;;12.27;;
11877;SDS011;5998;42.676;23.268;2023-10-13T08:34:39;19.50;;;12.77;;
11877;SDS011;5998;42.676;23.268;2023-10-13T08:37:25;19.03;;;11.70;;
11877;SDS011;5998;42.676;23.268;2023-10-13T08:39:55;20.17;;;11.90;;
11877;SDS011;5998;42.676;23.268;2023-10-13T08:42:45;18.93;;;11.73;;
11877;SDS011;5998;42.676;23.268;2023-10-13T08:45:36;15.47;;;10.87;;
11877;SDS011;5998;42.676;23.268;2023-10-13T08:48:25;15.37;;;11.50;;
11877;SDS011;5998;42.676;23.268;2023-10-13T08:50:57;20.53;;;12.13;;
11877;SDS011;5998;42.676;23.268;2023-10-13T08:53:31;20.90;;;12.27;;
11877;SDS011;5998;42.676;23.268;2023-10-13T08:56:09;24.67;;;11.83;;
11877;SDS011;5998;42.676;23.268;2023-10-13T08:58:40;21.70;;;11.60;;
11877;SDS011;5998;42.676;23.268;2023-10-13T09:01:33;19.23;;;11.27;;
11877;SDS011;5998;42.676;23.268;2023-10-13T09:04:02;12.77;;;9.33;;
11877;SDS011;5998;42.676;23.268;2023-10-13T09:06:48;17.77;;;10.37;;
11877;SDS011;5998;42.676;23.268;2023-10-13T09:09:34;15.50;;;8.77;;
11877;SDS011;5998;42.676;23.268;2023-10-13T09:12:25;16.33;;;9.53;;
11877;SDS011;5998;42.676;23.268;2023-10-13T09:15:01;17.93;;;10.23;;
11877;SDS011;5998;42.676;23.268;2023-10-13T09:17:32;8.97;;;7.17;;
11877;SDS011;5998;42.676;23.268;2023-10-13T09:20:08;21.07;;;9.13;;
11877;SDS011;5998;42.676;23.268;2023-10-13T09:22:56;20.40;;;8.70;;
11877;SDS011;5998;42.676;23.268;2023-10-13T09:25:33;12.17;;;7.40;;
11877;SDS011;5998;42.676;23.268;2023-10-13T09:28:01;20.30;;;9.00;;
11877;SDS011;5998;42.676;23.268;2023-10-13T09:30:35;16.53;;;7.83;;
11877;SDS011;5998;42.676;23.268;2023-10-13T09:33:09;10.60;;;6.83;;
11877;SDS011;5998;42.676;23.268;2023-10-13T09:35:41;16.97;;;7.27;;
11877;SDS011;5998;42.676;23.268;2023-10-13T09:38:14;18.00;;;7.47;;
11877;SDS011;5998;42.676;23.268;2023-10-13T09:40:41;13.33;;;7.30;;
11877;SDS011;5998;42.676;23.268;2023-10-13T09:43:14;15.77;;;6.70;;
11877;SDS011;5998;42.676;23.268;2023-10-13T09:45:43;8.47;;;6.43;;
11877;SDS011;5998;42.676;23.268;2023-10-13T09:48:30;14.20;;;6.20;;
11877;SDS011;5998;42.676;23.268;2023-10-13T09:50:59;9.80;;;5.97;;
11877;SDS011;5998;42.676;23.268;2023-10-13T09:53:28;13.13;;;6.33;;
11877;SDS011;5998;42.676;23.268;2023-10-13T09:55:58;8.17;;;5.17;;
11877;SDS011;5998;42.676;23.268;2023-10-13T09:58:38;10.40;;;6.10;;
11877;SDS011;5998;42.676;23.268;2023-10-13T10:01:12;8.43;;;5.63;;
11877;SDS011;5998;42.676;23.268;2023-10-13T10:03:47;7.37;;;5.20;;
11877;SDS011;5998;42.676;23.268;2023-10-13T10:06:22;7.70;;;4.70;;
11877;SDS011;5998;42.676;23.268;2023-10-13T10:08:53;7.07;;;4.30;;
11877;SDS011;5998;42.676;23.268;2023-10-13T10:11:51;8.90;;;4.70;;
11877;SDS011;5998;42.676;23.268;2023-10-13T10:17:45;9.43;;;5.73;;
11877;SDS011;5998;42.676;23.268;2023-10-13T10:20:14;10.17;;;5.13;;
11877;SDS011;5998;42.676;23.268;2023-10-13T10:22:57;9.50;;;4.80;;
11877;SDS011;5998;42.676;23.268;2023-10-13T10:25:29;9.10;;;5.57;;
11877;SDS011;5998;42.676;23.268;2023-10-13T10:28:00;8.07;;;5.50;;
11877;SDS011;5998;42.676;23.268;2023-10-13T10:30:30;7.97;;;4.93;;
11877;SDS011;5998;42.676;23.268;2023-10-13T10:32:59;9.87;;;4.87;;
11877;SDS011;5998;42.676;23.268;2023-10-13T10:35:33;9.40;;;4.93;;
11877;SDS011;5998;42.676;23.268;2023-10-13T10:38:07;10.90;;;5.07;;
11877;SDS011;5998;42.676;23.268;2023-10-13T10:40:53;7.50;;;4.90;;
11877;SDS011;5998;42.676;23.268;2023-10-13T10:43:25;6.23;;;4.50;;
11877;SDS011;5998;42.676;23.268;2023-10-13T10:45:54;9.20;;;4.03;;
11877;SDS011;5998;42.676;23.268;2023-10-13T10:48:25;5.50;;;4.17;;
11877;SDS011;5998;42.676;23.268;2023-10-13T10:50:58;5.30;;;3.67;;
11877;SDS011;5998;42.676;23.268;2023-10-13T10:53:38;5.00;;;3.80;;
11877;SDS011;5998;42.676;23.268;2023-10-13T10:56:09;7.30;;;3.47;;
11877;SDS011;5998;42.676;23.268;2023-10-13T10:58:48;4.47;;;3.40;;
11877;SDS011;5998;42.676;23.268;2023-10-13T11:01:20;9.97;;;4.03;;
11877;SDS011;5998;42.676;23.268;2023-10-13T11:03:53;7.43;;;4.30;;
11877;SDS011;5998;42.676;23.268;2023-10-13T11:06:24;6.30;;;3.77;;
11877;SDS011;5998;42.676;23.268;2023-10-13T11:09:03;7.83;;;3.47;;
11877;SDS011;5998;42.676;23.268;2023-10-13T11:11:43;7.50;;;3.77;;
11877;SDS011;5998;42.676;23.268;2023-10-13T11:14:19;9.47;;;3.57;;
11877;SDS011;5998;42.676;23.268;2023-10-13T11:16:48;8.07;;;3.73;;
11877;SDS011;5998;42.676;23.268;2023-10-13T11:19:20;8.47;;;3.87;;
11877;SDS011;5998;42.676;23.268;2023-10-13T11:21:52;5.63;;;3.83;;
11877;SDS011;5998;42.676;23.268;2023-10-13T11:24:20;7.93;;;3.60;;
11877;SDS011;5998;42.676;23.268;2023-10-13T11:26:48;5.43;;;3.20;;
11877;SDS011;5998;42.676;23.268;2023-10-13T11:29:19;3.78;;;3.10;;
11877;SDS011;5998;42.676;23.268;2023-10-13T11:31:59;5.55;;;2.83;;
11877;SDS011;5998;42.676;23.268;2023-10-13T11:34:28;6.82;;;2.80;;
11877;SDS011;5998;42.676;23.268;2023-10-13T11:37:06;5.85;;;2.95;;
11877;SDS011;5998;42.676;23.268;2023-10-13T11:39:46;5.03;;;2.60;;
11877;SDS011;5998;42.676;23.268;2023-10-13T11:42:13;5.80;;;3.13;;
11877;SDS011;5998;42.676;23.268;2023-10-13T11:44:42;4.65;;;2.38;;
11877;SDS011;5998;42.676;23.268;2023-10-13T11:47:09;5.55;;;2.40;;
11877;SDS011;5998;42.676;23.268;2023-10-13T11:49:53;4.95;;;2.33;;
11877;SDS011;5998;42.676;23.268;2023-10-13T11:52:24;7.67;;;3.00;;
11877;SDS011;5998;42.676;23.268;2023-10-13T11:54:54;5.28;;;2.72;;
11877;SDS011;5998;42.676;23.268;2023-10-13T11:57:21;7.38;;;2.72;;
11877;SDS011;5998;42.676;23.268;2023-10-13T11:59:48;3.92;;;2.83;;
11877;SDS011;5998;42.676;23.268;2023-10-13T12:02:43;3.30;;;2.58;;
11877;SDS011;5998;42.676;23.268;2023-10-13T12:05:27;9.30;;;2.80;;
11877;SDS011;5998;42.676;23.268;2023-10-13T12:08:15;11.20;;;3.42;;
11877;SDS011;5998;42.676;23.268;2023-10-13T12:10:47;4.80;;;2.28;;
11877;SDS011;5998;42.676;23.268;2023-10-13T12:13:25;8.13;;;3.17;;
11877;SDS011;5998;42.676;23.268;2023-10-13T12:15:51;7.50;;;2.70;;
11877;SDS011;5998;42.676;23.268;2023-10-13T12:18:21;5.07;;;2.78;;
11877;SDS011;5998;42.676;23.268;2023-10-13T12:20:48;7.30;;;3.60;;
11877;SDS011;5998;42.676;23.268;2023-10-13T12:23:16;5.60;;;2.58;;
11877;SDS011;5998;42.676;23.268;2023-10-13T12:25:45;6.00;;;2.60;;
11877;SDS011;5998;42.676;23.268;2023-10-13T12:28:22;5.22;;;2.40;;
11877;SDS011;5998;42.676;23.268;2023-10-13T12:30:52;5.33;;;2.37;;
11877;SDS011;5998;42.676;23.268;2023-10-13T12:33:19;5.00;;;2.43;;
11877;SDS011;5998;42.676;23.268;2023-10-13T12:36:02;5.83;;;2.60;;
11877;SDS011;5998;42.676;23.268;2023-10-13T12:38:33;3.45;;;2.22;;
11877;SDS011;5998;42.676;23.268;2023-10-13T12:41:16;3.67;;;2.50;;
11877;SDS011;5998;42.676;23.268;2023-10-13T12:44:10;7.50;;;2.47;;
11877;SDS011;5998;42.676;23.268;2023-10-13T12:46:54;5.85;;;2.47;;
11877;SDS011;5998;42.676;23.268;2023-10-13T12:49:38;3.27;;;2.47;;
11877;SDS011;5998;42.676;23.268;2023-10-13T12:52:14;3.10;;;2.47;;
11877;SDS011;5998;42.676;23.268;2023-10-13T12:54:46;4.80;;;2.33;;
11877;SDS011;5998;42.676;23.268;2023-10-13T12:57:23;5.05;;;2.10;;
11877;SDS011;5998;42.676;23.268;2023-10-13T12:59:50;9.63;;;2.50;;
11877;SDS011;5998;42.676;23.268;2023-10-13T13:02:18;12.00;;;6.60;;
11877;SDS011;5998;42.676;23.268;2023-10-13T13:04:45;4.40;;;2.50;;
11877;SDS011;5998;42.676;23.268;2023-10-13T13:07:16;3.40;;;2.10;;
11877;SDS011;5998;42.676;23.268;2023-10-13T13:09:43;4.83;;;2.47;;
11877;SDS011;5998;42.676;23.268;2023-10-13T13:12:11;6.03;;;2.40;;
11877;SDS011;5998;42.676;23.268;2023-10-13T13:14:38;4.17;;;2.40;;
11877;SDS011;5998;42.676;23.268;2023-10-13T13:17:06;4.73;;;2.30;;
11877;SDS011;5998;42.676;23.268;2023-10-13T13:19:33;6.35;;;2.92;;
11877;SDS011;5998;42.676;23.268;2023-10-13T13:22:01;5.40;;;2.40;;
11877;SDS011;5998;42.676;23.268;2023-10-13T13:24:29;4.47;;;2.60;;
11877;SDS011;5998;42.676;23.268;2023-10-13T13:26:56;5.03;;;2.80;;
11877;SDS011;5998;42.676;23.268;2023-10-13T13:29:29;3.27;;;2.60;;
11877;SDS011;5998;42.676;23.268;2023-10-13T13:31:56;5.53;;;2.83;;
11877;SDS011;5998;42.676;23.268;2023-10-13T13:34:22;3.40;;;2.23;;
11877;SDS011;5998;42.676;23.268;2023-10-13T13:36:49;5.60;;;3.10;;
11877;SDS011;5998;42.676;23.268;2023-10-13T13:39:18;2.70;;;2.37;;
11877;SDS011;5998;42.676;23.268;2023-10-13T13:41:54;3.47;;;2.40;;
11877;SDS011;5998;42.676;23.268;2023-10-13T13:44:22;6.83;;;3.63;;
11877;SDS011;5998;42.676;23.268;2023-10-13T13:46:55;4.93;;;2.70;;
11877;SDS011;5998;42.676;23.268;2023-10-13T13:49:23;5.17;;;2.53;;
11877;SDS011;5998;42.676;23.268;2023-10-13T13:51:55;5.87;;;2.77;;
11877;SDS011;5998;42.676;23.268;2023-10-13T13:54:22;4.47;;;2.50;;
11877;SDS011;5998;42.676;23.268;2023-10-13T13:56:52;2.90;;;2.47;;
11877;SDS011;5998;42.676;23.268;2023-10-13T13:59:19;5.73;;;2.60;;
11877;SDS011;5998;42.676;23.268;2023-10-13T14:01:46;6.67;;;2.80;;
11877;SDS011;5998;42.676;23.268;2023-10-13T14:04:14;4.73;;;2.67;;
11877;SDS011;5998;42.676;23.268;2023-10-13T14:06:43;5.17;;;2.40;;
11877;SDS011;5998;42.676;23.268;2023-10-13T14:09:10;3.60;;;2.70;;
11877;SDS011;5998;42.676;23.268;2023-10-13T14:11:57;6.73;;;3.03;;
11877;SDS011;5998;42.676;23.268;2023-10-13T14:14:42;6.40;;;2.87;;
11877;SDS011;5998;42.676;23.268;2023-10-13T14:17:14;6.27;;;2.77;;
11877;SDS011;5998;42.676;23.268;2023-10-13T14:19:42;3.93;;;2.60;;
11877;SDS011;5998;42.676;23.268;2023-10-13T14:22:11;2.80;;;2.50;;
11877;SDS011;5998;42.676;23.268;2023-10-13T14:24:38;7.97;;;3.77;;
11877;SDS011;5998;42.676;23.268;2023-10-13T14:27:12;5.13;;;2.33;;
11877;SDS011;5998;42.676;23.268;2023-10-13T14:29:42;7.63;;;3.20;;
11877;SDS011;5998;42.676;23.268;2023-10-13T14:32:09;7.07;;;3.43;;
11877;SDS011;5998;42.676;23.268;2023-10-13T14:34:39;7.47;;;2.93;;
11877;SDS011;5998;42.676;23.268;2023-10-13T14:37:07;4.70;;;2.70;;
11877;SDS011;5998;42.676;23.268;2023-10-13T14:39:37;5.93;;;2.80;;
11877;SDS011;5998;42.676;23.268;2023-10-13T14:42:04;5.33;;;2.87;;
11877;SDS011;5998;42.676;23.268;2023-10-13T14:44:31;3.87;;;2.73;;
11877;SDS011;5998;42.676;23.268;2023-10-13T14:46:58;6.60;;;2.70;;
11877;SDS011;5998;42.676;23.268;2023-10-13T14:49:25;5.47;;;2.80;;
11877;SDS011;5998;42.676;23.268;2023-10-13T14:51:52;4.70;;;2.50;;
11877;SDS011;5998;42.676;23.268;2023-10-13T14:54:21;6.37;;;2.93;;
11877;SDS011;5998;42.676;23.268;2023-10-13T14:56:58;9.50;;;2.80;;
11877;SDS011;5998;42.676;23.268;2023-10-13T14:59:25;5.80;;;2.70;;
11877;SDS011;5998;42.676;23.268;2023-10-13T15:01:58;6.67;;;3.03;;
11877;SDS011;5998;42.676;23.268;2023-10-13T15:04:26;5.37;;;3.13;;
11877;SDS011;5998;42.676;23.268;2023-10-13T15:06:53;4.33;;;2.97;;
11877;SDS011;5998;42.676;23.268;2023-10-13T15:09:22;10.20;;;3.43;;
11877;SDS011;5998;42.676;23.268;2023-10-13T15:11:49;4.33;;;2.87;;
11877;SDS011;5998;42.676;23.268;2023-10-13T15:14:18;6.37;;;2.70;;
11877;SDS011;5998;42.676;23.268;2023-10-13T15:16:45;4.40;;;2.60;;
11877;SDS011;5998;42.676;23.268;2023-10-13T15:19:13;7.73;;;3.07;;
11877;SDS011;5998;42.676;23.268;2023-10-13T15:21:41;6.80;;;3.30;;